Portada
METAR-TAF:

METAR-TAF

Aeropuertos :

Arar, Arabia Saudita

latitud: 30-54N, longitud: 041-08E, altitud: 555 m

Observación

El informe se hizo hace 49 minutos, a las 23:00 UTC
Viento 4 kt del noreste
Temperatura 26°C
Humedad 17%
Presión 1011 hPa
Visibilidad 10 km o más
sin nubes por debajo de 1500 m y sin presencia de cumulonimbus.

METAR: OERR 172300Z 05004KT CAVOK 26/M01 Q1011 NOSIG

Hora: 02:49 (23:49 UTC)

Pronóstico

El informe se hizo hace 49 minutos, a las 23:00 UTC
Pronóstico válido del 18 a las 00 UTC al 19 a las 06 UTC
Viento 8 kt del norte-noroeste
Visibilidad 10 km o más
sin nubes por debajo de 1500 m y sin presencia de cumulonimbus.
Evolucionando progresivamente
del 18 a las 06 UTC al 18 a las 08 UTC
Viento 12 kt del este-sureste
Visibilidad: 7000 m
Evolucionando progresivamente
del 18 a las 18 UTC al 18 a las 20 UTC
Viento 10 kt del norte

TAF: OERR 172300Z 1800/1906 34008KT CAVOK BECMG 1806/1808 11012KT 7000 NSC BECMG 1818/1820 01010KT

Observaciones y pronósticos meteorológicos de más de 4000 aeropuertos (mensajes METAR y TAF).

Los puntos amarillos y rojos representan las estaciones disponibles.

Ponga el ratón en el punto deseado para ver el nombre de la estación.

Haga clic para ver las observaciones y los pronósticos meteorológicos.

Para cambiar el mapa : haga clic en los botones verdes con una cruz de color negro para hacer un zoom, en el botón verde con un guión para alejar o en las flechas verdes para mapas adyacentes.


METAR-TAF: